Time;durP1;ratioP1;P1;durP2;ratioP2;P2;SDS_P1;SDS_P2;PMS_P1;PMS_P2;Temp;Humidity;BMP_temperature;BMP_pressure;BME280_temperature;BME280_humidity;BME280_pressure;Samples;Min_cycle;Max_cycle;Signal;HPM_P1;HPM_P2
2021/10/08 00:01:28;;;;;;;767.93;723.57;;;6.50;99.90;;;;;;5013325;28;20931;-84
2021/10/08 00:03:56;;;;;;;766.73;721.30;;;6.40;99.90;;;;;;5013982;28;20464;-84
2021/10/08 00:06:27;;;;;;;776.67;729.67;;;6.30;99.90;;;;;;5013733;28;20461;-81
2021/10/08 00:08:54;;;;;;;789.30;740.70;;;6.20;99.90;;;;;;5013670;28;20493;-85
2021/10/08 00:11:21;;;;;;;795.97;747.97;;;6.10;99.90;;;;;;5013745;28;20464;-81
2021/10/08 00:13:50;;;;;;;828.30;778.97;;;6.10;99.90;;;;;;5013451;28;20999;-83
2021/10/08 00:16:17;;;;;;;801.00;753.23;;;6.10;99.90;;;;;;5012365;28;20446;-83
2021/10/08 00:18:44;;;;;;;803.00;754.80;;;6.00;99.90;;;;;;5013372;28;20529;-82
2021/10/08 00:21:13;;;;;;;802.53;754.00;;;5.80;99.90;;;;;;5013459;28;20492;-83
2021/10/08 00:23:42;;;;;;;809.43;760.47;;;5.80;99.90;;;;;;5013143;28;20457;-82
2021/10/08 00:26:09;;;;;;;812.80;762.70;;;5.70;99.90;;;;;;5013199;28;20457;-82
2021/10/08 00:28:36;;;;;;;815.80;767.07;;;5.80;99.90;;;;;;5013273;28;20905;-81
2021/10/08 00:31:03;;;;;;;819.60;771.27;;;5.70;99.90;;;;;;5012398;28;20457;-83
2021/10/08 00:33:31;;;;;;;804.00;756.07;;;5.80;99.90;;;;;;5013232;28;20480;-83
2021/10/08 00:36:00;;;;;;;800.87;754.27;;;5.70;99.90;;;;;;5013101;28;20457;-82
2021/10/08 00:38:27;;;;;;;794.90;747.13;;;5.60;99.90;;;;;;5013332;28;20507;-82
2021/10/08 00:40:55;;;;;;;807.33;759.20;;;5.60;99.90;;;;;;5013113;28;20461;-83
2021/10/08 00:43:23;;;;;;;818.17;769.80;;;5.60;99.90;;;;;;5012998;28;20567;-82
2021/10/08 00:45:51;;;;;;;801.60;753.67;;;5.60;99.90;;;;;;5012125;28;20497;-84
2021/10/08 00:48:19;;;;;;;804.53;755.60;;;5.60;99.90;;;;;;5013067;28;20555;-81
2021/10/08 00:50:48;;;;;;;796.50;748.33;;;5.70;99.90;;;;;;5013098;28;20511;-82
2021/10/08 00:53:19;;;;;;;799.13;751.33;;;5.50;99.90;;;;;;5012918;28;20479;-83
2021/10/08 00:55:47;;;;;;;776.17;729.47;;;5.50;99.90;;;;;;5012931;28;20508;-82
2021/10/08 00:58:18;;;;;;;794.97;748.43;;;5.60;99.90;;;;;;5013197;28;20520;-82
2021/10/08 01:00:49;;;;;;;803.60;756.70;;;5.50;99.90;;;;;;5012202;28;20471;-83
2021/10/08 01:03:18;;;;;;;795.17;747.57;;;5.60;99.90;;;;;;5012909;28;20457;-82
2021/10/08 01:05:45;;;;;;;791.77;745.87;;;5.50;99.90;;;;;;5012952;28;21006;-86
2021/10/08 01:08:13;;;;;;;798.10;748.30;;;5.50;99.90;;;;;;5012995;28;20840;-84
2021/10/08 01:10:42;;;;;;;792.37;745.57;;;5.70;99.90;;;;;;5012946;28;20539;-83
2021/10/08 01:13:13;;;;;;;794.33;747.67;;;5.70;99.90;;;;;;5013039;28;20453;-82
2021/10/08 01:15:42;;;;;;;789.07;743.10;;;5.60;99.90;;;;;;5011761;28;20964;-83
2021/10/08 01:18:09;;;;;;;807.97;758.77;;;5.70;99.90;;;;;;5012941;28;20465;-82
2021/10/08 01:20:38;;;;;;;810.67;760.17;;;5.70;99.90;;;;;;5012793;28;21047;-82
2021/10/08 01:23:05;;;;;;;808.27;760.63;;;5.70;99.90;;;;;;5012935;28;20457;-83
2021/10/08 01:25:36;;;;;;;813.10;766.43;;;5.70;99.90;;;;;;5012575;28;20458;-83
2021/10/08 01:28:05;;;;;;;801.27;754.77;;;5.60;99.90;;;;;;5012595;28;20461;-85
2021/10/08 01:30:33;;;;;;;800.30;753.60;;;5.50;99.90;;;;;;5011671;28;20461;-86
2021/10/08 01:33:00;;;;;;;801.90;754.03;;;5.40;99.90;;;;;;5012655;28;20457;-82
2021/10/08 01:35:27;;;;;;;799.97;753.73;;;5.30;99.90;;;;;;5014689;28;20511;-83
2021/10/08 01:37:56;;;;;;;817.30;770.00;;;5.50;99.90;;;;;;5016279;28;20508;-82
2021/10/08 01:40:23;;;;;;;821.77;775.30;;;5.50;99.90;;;;;;5017267;28;20814;-85
2021/10/08 01:42:51;;;;;;;813.03;766.50;;;5.70;99.90;;;;;;5016152;28;20528;-82
2021/10/08 01:45:18;;;;;;;803.27;757.07;;;5.50;99.90;;;;;;5014896;28;20511;-83
2021/10/08 01:47:45;;;;;;;798.90;753.33;;;5.50;99.90;;;;;;5016015;28;20500;-84
2021/10/08 01:50:13;;;;;;;792.03;747.60;;;5.50;99.90;;;;;;5015916;28;20495;-86
2021/10/08 01:52:40;;;;;;;800.27;755.00;;;5.40;99.90;;;;;;5015995;28;20885;-84
2021/10/08 01:55:09;;;;;;;779.47;735.30;;;5.40;99.90;;;;;;5015937;28;20485;-86
2021/10/08 01:57:36;;;;;;;781.80;736.93;;;5.20;99.90;;;;;;5015788;28;20948;-85
2021/10/08 02:00:04;;;;;;;812.17;759.00;;;5.10;99.90;;;;;;5014815;28;20495;-85
2021/10/08 02:02:31;;;;;;;812.27;765.70;;;5.10;99.90;;;;;;5015658;28;20463;-84
2021/10/08 02:04:59;;;;;;;798.93;749.57;;;5.30;99.90;;;;;;5015950;28;20480;-84
2021/10/08 02:07:26;;;;;;;805.57;756.67;;;5.20;99.90;;;;;;5015841;28;20453;-85
2021/10/08 02:09:53;;;;;;;807.07;759.47;;;5.10;99.90;;;;;;5015645;28;20481;-83
2021/10/08 02:12:23;;;;;;;801.40;752.10;;;5.10;99.90;;;;;;5015463;28;20937;-87
2021/10/08 02:14:52;;;;;;;787.30;740.67;;;5.10;99.90;;;;;;5014715;28;20465;-87
2021/10/08 02:17:18;;;;;;;790.07;743.60;;;5.00;99.90;;;;;;5015668;28;20453;-85
2021/10/08 02:19:45;;;;;;;784.80;739.10;;;5.00;99.90;;;;;;5015452;28;20628;-88
2021/10/08 02:22:13;;;;;;;790.53;744.07;;;4.90;99.90;;;;;;5015312;28;20488;-84
2021/10/08 02:24:42;;;;;;;798.07;751.60;;;4.90;99.90;;;;;;5015303;28;20461;-85
2021/10/08 02:27:09;;;;;;;783.83;738.47;;;4.90;99.90;;;;;;5015298;28;20532;-83
2021/10/08 02:29:40;;;;;;;794.40;748.47;;;4.90;99.90;;;;;;5014392;28;20578;-84
2021/10/08 02:32:09;;;;;;;785.20;740.20;;;4.90;99.90;;;;;;5015228;28;20515;-86
2021/10/08 02:34:36;;;;;;;793.70;748.80;;;4.90;99.90;;;;;;5015378;28;20454;-85
2021/10/08 02:37:03;;;;;;;782.90;737.90;;;4.90;99.90;;;;;;5015144;28;20548;-86
2021/10/08 02:39:30;;;;;;;785.37;740.37;;;4.80;99.90;;;;;;5015086;28;20497;-84
2021/10/08 02:41:57;;;;;;;780.07;735.17;;;4.70;99.90;;;;;;5015062;28;20536;-87
2021/10/08 02:44:26;;;;;;;768.20;722.80;;;4.60;99.90;;;;;;5013732;28;20851;-84
2021/10/08 02:46:56;;;;;;;785.90;741.00;;;4.60;99.90;;;;;;5014887;28;21119;-88
2021/10/08 02:49:23;;;;;;;784.00;738.70;;;4.70;99.90;;;;;;5014910;28;20489;-87
2021/10/08 02:51:51;;;;;;;781.27;736.40;;;4.60;99.90;;;;;;5015134;28;20456;-84
2021/10/08 02:54:18;;;;;;;795.53;749.50;;;4.70;99.90;;;;;;5014779;28;20457;-83
2021/10/08 02:56:45;;;;;;;780.73;734.17;;;4.80;99.90;;;;;;5014734;28;20461;-85
2021/10/08 02:59:14;;;;;;;795.13;747.37;;;4.80;99.90;;;;;;5013887;28;20484;-84
2021/10/08 03:01:46;;;;;;;810.87;763.87;;;4.80;99.90;;;;;;5014853;28;20963;-86
2021/10/08 03:04:14;;;;;;;818.27;771.67;;;4.90;99.90;;;;;;5014694;28;20948;-85
2021/10/08 03:06:41;;;;;;;803.27;756.90;;;4.90;99.90;;;;;;5014477;28;20945;-84
2021/10/08 03:09:10;;;;;;;801.57;755.57;;;4.90;99.90;;;;;;5014417;28;20535;-84
2021/10/08 03:11:39;;;;;;;807.33;761.00;;;4.90;99.90;;;;;;5014521;28;20457;-86
2021/10/08 03:14:06;;;;;;;816.07;767.03;;;4.90;99.90;;;;;;5013383;28;20488;-85
2021/10/08 03:16:36;;;;;;;807.03;756.63;;;5.10;99.90;;;;;;5014201;28;20511;-84
2021/10/08 03:19:03;;;;;;;801.43;748.17;;;5.20;99.90;;;;;;5014578;28;20457;-87
2021/10/08 03:21:32;;;;;;;790.43;745.80;;;5.30;99.90;;;;;;5014287;28;20508;-84
2021/10/08 03:23:59;;;;;;;769.73;726.30;;;5.20;99.90;;;;;;5014539;28;20877;-86
2021/10/08 03:26:26;;;;;;;786.20;743.93;;;5.10;99.90;;;;;;5015079;28;20453;-85
2021/10/08 03:28:53;;;;;;;796.13;745.53;;;5.10;99.90;;;;;;5014104;28;20936;-85
2021/10/08 03:31:23;;;;;;;782.60;741.00;;;5.20;99.90;;;;;;5013268;28;20933;-85
2021/10/08 03:33:50;;;;;;;781.50;739.30;;;5.00;99.90;;;;;;5014887;28;20437;-89
2021/10/08 03:36:22;;;;;;;772.10;731.00;;;5.00;99.90;;;;;;5014963;28;20453;-85
2021/10/08 03:38:53;;;;;;;765.67;724.10;;;5.00;99.90;;;;;;5014217;28;20816;-88
2021/10/08 03:41:23;;;;;;;784.90;737.60;;;5.00;99.90;;;;;;5014831;28;20496;-84
2021/10/08 03:43:54;;;;;;;782.23;735.43;;;4.80;99.90;;;;;;5014407;28;20484;-85
2021/10/08 03:46:21;;;;;;;800.90;751.93;;;4.90;99.90;;;;;;5013239;28;20536;-86
2021/10/08 03:49:13;;;;;;;803.47;757.57;;;4.90;99.90;;;;;;5013783;28;20517;-87
2021/10/08 03:51:41;;;;;;;800.93;752.43;;;5.00;99.90;;;;;;5013900;28;20462;-85
2021/10/08 03:54:19;;;;;;;791.33;747.80;;;5.10;99.90;;;;;;5013818;28;20458;-85
2021/10/08 03:56:47;;;;;;;796.70;745.13;;;5.10;99.90;;;;;;5013495;28;20457;-84
2021/10/08 03:59:19;;;;;;;779.67;731.57;;;4.90;99.90;;;;;;5012333;28;20461;-89
2021/10/08 04:01:48;;;;;;;791.17;740.23;;;4.90;99.90;;;;;;5013622;28;20808;-84
2021/10/08 04:04:15;;;;;;;800.37;746.20;;;4.80;99.90;;;;;;5013570;28;20465;-85
2021/10/08 04:06:42;;;;;;;802.40;747.27;;;5.10;99.90;;;;;;5013672;28;20453;-86
2021/10/08 04:09:11;;;;;;;783.40;739.13;;;5.10;99.90;;;;;;5013545;28;20888;-85
2021/10/08 04:11:38;;;;;;;796.20;746.97;;;5.20;99.90;;;;;;5013723;28;20463;-85
2021/10/08 04:14:05;;;;;;;805.60;760.30;;;5.10;99.90;;;;;;5012396;28;20515;-86
2021/10/08 04:16:33;;;;;;;786.50;743.90;;;5.00;99.90;;;;;;5013765;28;20457;-84
2021/10/08 04:19:00;;;;;;;770.20;726.93;;;5.10;99.90;;;;;;5013474;28;20457;-85
2021/10/08 04:21:27;;;;;;;765.77;724.07;;;5.10;99.90;;;;;;5013167;28;20866;-84
2021/10/08 04:24:02;;;;;;;775.97;733.30;;;4.90;99.90;;;;;;5013233;28;20458;-86
2021/10/08 04:26:33;;;;;;;781.57;735.77;;;5.10;99.90;;;;;;5013319;28;20543;-86
2021/10/08 04:29:09;;;;;;;792.90;746.20;;;5.10;99.90;;;;;;5012246;28;20457;-86
2021/10/08 04:31:36;;;;;;;783.80;739.30;;;5.30;99.90;;;;;;5013318;28;20548;-86
2021/10/08 04:34:03;;;;;;;775.77;732.37;;;5.20;99.90;;;;;;5013314;28;20454;-85
2021/10/08 04:36:30;;;;;;;772.57;724.27;;;5.10;99.90;;;;;;5013527;28;20548;-86
2021/10/08 04:38:57;;;;;;;783.97;732.33;;;5.10;99.90;;;;;;5013636;28;20944;-85
2021/10/08 04:41:24;;;;;;;770.93;726.03;;;5.10;99.90;;;;;;5013648;28;20557;-85
2021/10/08 04:43:52;;;;;;;750.57;707.30;;;5.00;99.90;;;;;;5013186;28;20485;-85
2021/10/08 04:46:19;;;;;;;739.83;694.83;;;5.10;99.90;;;;;;5012892;28;20541;-85
2021/10/08 04:48:48;;;;;;;768.80;720.20;;;5.10;99.90;;;;;;5013047;28;20453;-87
2021/10/08 04:51:15;;;;;;;780.73;733.93;;;5.10;99.90;;;;;;5012985;28;20488;-87
2021/10/08 04:53:44;;;;;;;782.37;734.50;;;5.30;99.90;;;;;;5013104;28;20528;-87
2021/10/08 04:56:12;;;;;;;761.27;715.90;;;5.30;99.90;;;;;;5014116;28;20464;-88
2021/10/08 04:58:43;;;;;;;752.20;710.10;;;5.30;99.90;;;;;;5012991;28;20496;-87
2021/10/08 05:01:12;;;;;;;754.00;711.00;;;5.20;99.90;;;;;;5011945;28;20503;-85
2021/10/08 05:03:40;;;;;;;754.87;711.50;;;5.20;99.90;;;;;;5013889;28;20465;-86
2021/10/08 05:06:07;;;;;;;744.97;702.00;;;5.10;99.90;;;;;;5013127;28;20515;-85
2021/10/08 05:08:39;;;;;;;747.30;705.70;;;5.10;99.90;;;;;;5014014;28;20457;-85
2021/10/08 05:11:06;;;;;;;738.93;698.83;;;5.10;99.90;;;;;;5016867;28;20481;-86
2021/10/08 05:13:33;;;;;;;749.67;707.40;;;5.00;99.90;;;;;;5017009;28;20520;-86
2021/10/08 05:16:01;;;;;;;742.87;701.77;;;5.00;99.90;;;;;;5015728;28;20459;-85
2021/10/08 05:18:30;;;;;;;746.03;704.63;;;4.90;99.90;;;;;;5016719;28;20492;-84
2021/10/08 05:20:56;;;;;;;758.43;715.20;;;4.90;99.90;;;;;;5016629;28;20457;-86
2021/10/08 05:23:23;;;;;;;747.53;705.97;;;5.00;99.90;;;;;;5016826;28;20952;-84
2021/10/08 05:25:50;;;;;;;752.77;708.30;;;4.80;99.90;;;;;;5017647;28;20457;-85
2021/10/08 05:28:26;;;;;;;738.97;698.70;;;4.80;99.90;;;;;;5016872;28;20480;-87
2021/10/08 05:30:53;;;;;;;734.30;693.77;;;4.70;99.90;;;;;;5015333;28;20845;-87
2021/10/08 05:33:22;;;;;;;742.80;700.33;;;4.60;99.90;;;;;;5016642;28;20457;-84
2021/10/08 05:35:51;;;;;;;745.63;704.07;;;4.60;99.90;;;;;;5016304;28;20465;-89
2021/10/08 05:38:18;;;;;;;727.37;686.97;;;4.50;99.90;;;;;;5016346;28;20988;-84
2021/10/08 05:40:47;;;;;;;723.53;682.67;;;4.60;99.90;;;;;;5016302;28;20480;-85
2021/10/08 05:43:14;;;;;;;734.13;693.10;;;4.50;99.90;;;;;;5016186;28;20561;-85
2021/10/08 05:45:41;;;;;;;733.67;693.33;;;4.50;99.90;;;;;;5015088;28;20453;-90
2021/10/08 05:48:08;;;;;;;743.30;701.93;;;4.50;99.90;;;;;;5016047;28;20944;-86
2021/10/08 05:50:35;;;;;;;730.93;690.97;;;4.50;99.90;;;;;;5016937;28;20844;-87
2021/10/08 05:53:09;;;;;;;738.33;698.07;;;4.60;99.90;;;;;;5015999;28;20465;-84
2021/10/08 05:55:36;;;;;;;723.10;683.80;;;4.60;99.90;;;;;;5015799;28;20468;-88
2021/10/08 05:58:03;;;;;;;735.30;696.40;;;4.50;99.90;;;;;;5015827;28;20457;-86
2021/10/08 06:00:31;;;;;;;728.97;689.97;;;4.60;99.90;;;;;;5014929;28;20460;-85
2021/10/08 06:02:57;;;;;;;721.67;683.20;;;4.50;99.90;;;;;;5015791;28;20479;-87
2021/10/08 06:05:24;;;;;;;744.27;705.27;;;4.50;99.90;;;;;;5015860;28;20469;-84
2021/10/08 06:07:51;;;;;;;741.97;702.87;;;4.60;99.90;;;;;;5015705;28;20469;-85
2021/10/08 06:10:20;;;;;;;732.87;694.40;;;4.50;99.90;;;;;;5015460;28;20564;-85
2021/10/08 06:12:47;;;;;;;735.07;696.10;;;4.40;99.90;;;;;;5015432;28;21019;-83
2021/10/08 06:15:14;;;;;;;726.77;687.97;;;4.40;99.90;;;;;;5014879;28;20458;-81
2021/10/08 06:17:41;;;;;;;738.33;699.13;;;4.50;99.90;;;;;;5015581;28;20464;-84
2021/10/08 06:20:09;;;;;;;738.17;698.77;;;4.60;99.90;;;;;;5014923;28;20552;-85
2021/10/08 06:22:36;;;;;;;728.10;689.50;;;4.60;99.90;;;;;;5015415;28;20457;-86
2021/10/08 06:25:04;;;;;;;728.63;689.67;;;4.60;99.90;;;;;;5016289;28;20452;-84
2021/10/08 06:27:33;;;;;;;744.30;704.47;;;4.60;99.90;;;;;;5015526;28;20458;-84
2021/10/08 06:30:00;;;;;;;742.57;702.10;;;4.60;99.90;;;;;;5014217;28;20564;-83
2021/10/08 06:32:27;;;;;;;733.50;694.03;;;4.80;99.90;;;;;;5015234;28;20507;-84
2021/10/08 06:34:54;;;;;;;733.67;694.07;;;4.80;99.90;;;;;;5015476;28;20575;-84
2021/10/08 06:37:21;;;;;;;746.40;706.87;;;4.90;99.90;;;;;;5015085;28;20532;-84
2021/10/08 06:39:48;;;;;;;748.83;708.43;;;5.00;99.90;;;;;;5015059;28;20501;-85
2021/10/08 06:42:16;;;;;;;761.27;720.17;;;5.10;99.90;;;;;;5015125;28;20457;-86
2021/10/08 06:44:44;;;;;;;762.73;720.57;;;5.20;99.90;;;;;;5013973;28;20488;-87
2021/10/08 06:47:11;;;;;;;753.57;711.77;;;5.30;99.90;;;;;;5015138;28;20464;-85
2021/10/08 06:49:38;;;;;;;752.13;710.97;;;5.40;99.90;;;;;;5015133;28;20536;-83
2021/10/08 06:52:05;;;;;;;787.97;741.43;;;5.40;99.90;;;;;;5014969;28;20484;-84
2021/10/08 06:54:32;;;;;;;761.93;716.93;;;5.60;99.90;;;;;;5014990;28;20548;-88
2021/10/08 06:56:59;;;;;;;747.67;704.97;;;5.80;99.90;;;;;;5015176;28;20457;-84
2021/10/08 06:59:26;;;;;;;740.97;698.40;;;5.90;99.90;;;;;;5013993;28;20512;-84
2021/10/08 07:01:54;;;;;;;746.27;703.17;;;6.00;99.90;;;;;;5014545;28;20548;-84
2021/10/08 07:04:21;;;;;;;751.63;708.77;;;6.10;99.90;;;;;;5015464;28;20535;-86
2021/10/08 07:06:49;;;;;;;749.00;705.10;;;6.20;99.90;;;;;;5014820;28;20481;-84
2021/10/08 07:09:17;;;;;;;742.93;699.20;;;6.20;99.90;;;;;;5014618;28;20493;-85
2021/10/08 07:11:44;;;;;;;743.77;700.60;;;6.30;99.90;;;;;;5014488;28;20481;-86
2021/10/08 07:14:11;;;;;;;745.20;701.70;;;6.40;99.90;;;;;;5013640;28;20936;-83
2021/10/08 07:16:38;;;;;;;744.63;700.87;;;6.50;99.90;;;;;;5014700;28;20488;-86
2021/10/08 07:19:08;;;;;;;749.47;704.97;;;6.70;99.90;;;;;;5012064;28;20956;-87
2021/10/08 07:21:36;;;;;;;752.77;708.07;;;6.70;99.90;;;;;;5013028;28;20806;-86
2021/10/08 07:24:05;;;;;;;756.87;711.57;;;6.80;99.90;;;;;;5013394;28;20453;-86
2021/10/08 07:26:33;;;;;;;753.40;708.63;;;6.90;99.90;;;;;;5013000;28;20456;-82
2021/10/08 07:29:08;;;;;;;758.43;713.43;;;7.00;99.90;;;;;;5012431;28;20461;-82
2021/10/08 07:31:37;;;;;;;765.37;720.17;;;7.20;99.90;;;;;;5012416;28;20485;-84
2021/10/08 07:34:05;;;;;;;770.73;724.90;;;7.40;99.90;;;;;;5011969;28;20496;-82
2021/10/08 07:36:34;;;;;;;774.60;728.60;;;7.60;99.90;;;;;;5013774;28;20500;-88
2021/10/08 07:39:01;;;;;;;771.80;724.87;;;7.70;99.90;;;;;;5014845;28;20861;-86
2021/10/08 07:41:28;;;;;;;776.13;728.77;;;7.80;99.90;;;;;;5014998;28;20449;-83
2021/10/08 07:43:55;;;;;;;777.47;731.27;;;7.90;99.90;;;;;;5015138;28;20480;-82
2021/10/08 07:46:24;;;;;;;777.87;730.37;;;8.10;99.90;;;;;;5014083;28;20519;-90
2021/10/08 07:48:51;;;;;;;796.63;748.30;;;8.10;99.90;;;;;;5014312;28;20784;-82
2021/10/08 07:51:17;;;;;;;795.10;747.73;;;8.30;99.90;;;;;;5013583;28;20576;-84
2021/10/08 07:53:46;;;;;;;781.07;732.97;;;8.40;99.90;;;;;;5013714;28;20499;-84
2021/10/08 07:56:13;;;;;;;781.30;733.50;;;8.60;99.90;;;;;;5013615;28;20536;-84
2021/10/08 07:58:40;;;;;;;777.47;730.47;;;8.70;99.90;;;;;;5013719;28;20462;-84
2021/10/08 08:01:07;;;;;;;777.67;729.37;;;8.70;99.90;;;;;;5012677;28;20495;-86
2021/10/08 08:03:34;;;;;;;770.07;722.17;;;8.70;99.90;;;;;;5013946;28;20446;-84
2021/10/08 08:06:01;;;;;;;963.13;905.63;;;9.10;99.90;;;;;;5014438;28;20457;-88
2021/10/08 08:08:29;;;;;;;997.07;937.20;;;9.20;99.90;;;;;;5013648;28;20947;-86
2021/10/08 08:10:57;;;;;;;1003.70;943.10;;;9.10;99.90;;;;;;5013515;28;20477;-90
2021/10/08 08:13:24;;;;;;;1000.57;940.77;;;9.20;99.90;;;;;;5013302;28;20485;-87
2021/10/08 08:15:51;;;;;;;1007.80;947.60;;;9.30;99.90;;;;;;5012091;28;20466;-85
2021/10/08 08:18:25;;;;;;;892.83;836.60;;;9.40;99.90;;;;;;5013397;28;20540;-88
2021/10/08 08:20:52;;;;;;;913.37;856.57;;;9.60;99.90;;;;;;5013512;28;20817;-88
2021/10/08 08:23:19;;;;;;;929.13;871.83;;;9.60;99.90;;;;;;5013373;28;20534;-87
2021/10/08 08:25:46;;;;;;;936.20;876.77;;;9.80;99.90;;;;;;5013389;28;20485;-87
2021/10/08 08:28:18;;;;;;;931.07;872.87;;;9.90;99.90;;;;;;5013392;28;20449;-85
2021/10/08 08:30:45;;;;;;;927.80;869.80;;;10.00;99.90;;;;;;5011936;28;20485;-87
2021/10/08 08:33:12;;;;;;;931.20;873.00;;;10.10;99.90;;;;;;5013603;28;20468;-91
2021/10/08 08:35:51;;;;;;;912.07;854.47;;;10.20;99.90;;;;;;5013364;28;20481;-85
2021/10/08 08:38:18;;;;;;;916.73;859.67;;;10.30;99.90;;;;;;5012972;28;20825;-90
2021/10/08 08:40:45;;;;;;;904.97;848.47;;;10.40;99.90;;;;;;5013063;28;20552;-87
2021/10/08 08:43:15;;;;;;;867.17;811.13;;;10.60;99.90;;;;;;5012666;28;20481;-85
2021/10/08 08:45:50;;;;;;;819.03;767.90;;;10.80;99.90;;;;;;5011753;28;20454;-90
2021/10/08 08:48:20;;;;;;;769.50;720.20;;;11.20;99.90;;;;;;5013998;28;20453;-89
2021/10/08 08:50:48;;;;;;;624.80;589.40;;;11.50;99.90;;;;;;5014420;28;20516;-87
2021/10/08 08:53:21;;;;;;;619.93;584.23;;;11.80;99.90;;;;;;5012905;28;20465;-86
2021/10/08 08:55:55;;;;;;;351.43;326.50;;;12.30;99.90;;;;;;5013006;28;20453;-88
2021/10/08 08:58:24;;;;;;;223.40;205.70;;;12.50;99.90;;;;;;5012909;28;20982;-86
2021/10/08 09:00:57;;;;;;;200.07;183.17;;;13.00;99.90;;;;;;5011700;28;20453;-86
2021/10/08 09:03:24;;;;;;;607.90;475.13;;;13.50;99.90;;;;;;5012669;28;20956;-84
2021/10/08 09:05:51;;;;;;;126.57;119.27;;;13.90;99.90;;;;;;5013067;28;20842;-84
2021/10/08 09:08:19;;;;;;;79.30;75.53;;;14.20;99.90;;;;;;5013080;28;20452;-85
2021/10/08 09:10:48;;;;;;;67.13;63.87;;;14.40;99.90;;;;;;5012960;28;20863;-85
2021/10/08 09:13:17;;;;;;;82.30;78.03;;;14.50;97.20;;;;;;5012813;28;20488;-87
2021/10/08 09:15:54;;;;;;;40.30;38.60;;;14.60;99.40;;;;;;5011531;28;20875;-85
2021/10/08 09:18:23;;;;;;;34.70;33.10;;;14.50;95.40;;;;;;5012883;28;20557;-85
2021/10/08 09:21:10;;;;;;;33.37;31.60;;;14.70;95.90;;;;;;5012795;28;20501;-86
2021/10/08 09:23:39;;;;;;;35.33;33.43;;;14.90;93.30;;;;;;5012737;28;20466;-85
2021/10/08 09:26:15;;;;;;;25.03;23.20;;;15.30;99.80;;;;;;5012715;28;20887;-85
2021/10/08 09:28:55;;;;;;;19.97;18.67;;;15.50;91.20;;;;;;5010587;28;20498;-86
2021/10/08 09:31:27;;;;;;;20.37;14.63;;;15.80;86.30;;;;;;5011655;28;20483;-86
2021/10/08 09:34:15;;;;;;;13.00;11.67;;;15.90;82.40;;;;;;5012982;28;20523;-84
2021/10/08 09:36:48;;;;;;;8.73;7.93;;;16.50;88.80;;;;;;5012953;28;20452;-85
2021/10/08 09:39:19;;;;;;;8.83;7.83;;;16.90;88.40;;;;;;5012900;28;20493;-86
2021/10/08 09:41:56;;;;;;;12.90;7.70;;;16.90;70.10;;;;;;5012683;28;20465;-84
2021/10/08 09:44:27;;;;;;;7.00;4.27;;;16.80;66.90;;;;;;5016268;28;20477;-88
2021/10/08 09:47:13;;;;;;;8.13;5.90;;;16.90;65.30;;;;;;5019804;28;20942;-88
2021/10/08 09:49:44;;;;;;;5.50;2.60;;;17.00;64.30;;;;;;5018276;28;20459;-89
2021/10/08 09:52:22;;;;;;;7.10;4.40;;;17.40;57.30;;;;;;5018860;28;20483;-89
2021/10/08 09:54:53;;;;;;;7.87;3.40;;;17.60;55.30;;;;;;5019572;28;20445;-84
2021/10/08 09:57:21;;;;;;;7.03;3.57;;;17.80;55.00;;;;;;5020296;28;20820;-89
2021/10/08 09:59:49;;;;;;;682.30;137.53;;;18.40;55.30;;;;;;5019213;28;20456;-87
2021/10/08 10:02:21;;;;;;;18.93;13.10;;;18.70;52.10;;;;;;5019249;28;20463;-89
2021/10/08 10:04:50;;;;;;;15.50;12.37;;;19.10;47.60;;;;;;5021240;28;20456;-87
2021/10/08 10:07:22;;;;;;;16.70;10.97;;;19.20;49.40;;;;;;5019569;28;20837;-86
2021/10/08 10:09:51;;;;;;;14.57;11.53;;;19.20;43.60;;;;;;5017280;28;20866;-90
2021/10/08 10:12:20;;;;;;;13.80;10.40;;;19.10;45.70;;;;;;5016473;28;20491;-88
2021/10/08 10:14:53;;;;;;;12.50;9.77;;;19.20;48.60;;;;;;5014669;28;20512;-85
2021/10/08 10:17:21;;;;;;;13.20;10.80;;;19.80;44.20;;;;;;5016066;28;20468;-89
2021/10/08 10:19:49;;;;;;;15.27;10.27;;;19.90;44.30;;;;;;5016659;28;20455;-87
2021/10/08 10:22:18;;;;;;;14.33;10.57;;;19.60;45.70;;;;;;5016213;28;20453;-86
2021/10/08 10:24:46;;;;;;;12.23;9.30;;;20.10;39.20;;;;;;5016908;28;20460;-83
2021/10/08 10:27:39;;;;;;;12.30;10.53;;;19.60;37.60;;;;;;5015854;28;20446;-86
2021/10/08 10:30:09;;;;;;;13.30;10.27;;;20.40;41.70;;;;;;5015197;28;20445;-82
2021/10/08 10:32:38;;;;;;;14.37;9.47;;;20.30;36.40;;;;;;5016112;28;20491;-88
2021/10/08 10:35:06;;;;;;;12.53;9.23;;;19.60;34.90;;;;;;5015438;28;20944;-87
2021/10/08 10:37:37;;;;;;;18.53;11.87;;;20.00;38.50;;;;;;5019464;28;20460;-85
2021/10/08 10:40:26;;;;;;;17.60;10.70;;;20.00;43.30;;;;;;5015356;28;20481;-88
2021/10/08 10:43:29;;;;;;;15.27;11.30;;;20.80;33.40;;;;;;5009634;28;20550;-88
2021/10/08 10:46:29;;;;;;;12.33;9.20;;;21.20;33.50;;;;;;5013040;28;20456;-87
2021/10/08 10:49:45;;;;;;;13.10;10.33;;;21.00;31.70;;;;;;5013785;28;20461;-87
2021/10/08 10:52:23;;;;;;;13.00;9.83;;;21.80;28.40;;;;;;5013791;28;20481;-89
2021/10/08 10:57:55;;;;;;;13.60;10.50;;;21.50;26.20;;;;;;5225866;23;20538;-88
2021/10/08 11:00:29;;;;;;;13.53;9.00;;;21.00;27.70;;;;;;5012066;28;20484;-87
2021/10/08 11:03:07;;;;;;;11.93;8.30;;;20.90;27.70;;;;;;5014257;28;20460;-85
2021/10/08 11:05:38;;;;;;;19.60;10.70;;;20.50;26.00;;;;;;5015060;28;20472;-90
2021/10/08 11:08:08;;;;;;;10.50;9.33;;;20.60;27.10;;;;;;5014854;28;20449;-89
2021/10/08 11:10:36;;;;;;;14.37;10.97;;;20.70;27.60;;;;;;5014701;28;20837;-89
2021/10/08 11:13:24;;;;;;;15.00;10.13;;;20.90;28.50;;;;;;5014342;28;20850;-91
2021/10/08 11:15:58;;;;;;;18.83;10.67;;;21.40;27.50;;;;;;5013991;28;20452;-88
2021/10/08 11:18:43;;;;;;;11.53;8.93;;;21.90;22.20;;;;;;5014189;28;20495;-90
2021/10/08 11:21:14;;;;;;;14.43;10.97;;;22.70;21.10;;;;;;5014091;28;20488;-89
2021/10/08 11:23:41;;;;;;;12.60;9.40;;;22.90;18.30;;;;;;5014456;28;20454;-87
2021/10/08 11:26:12;;;;;;;11.80;9.13;;;22.80;20.70;;;;;;5014214;28;20453;-90
2021/10/08 11:28:40;;;;;;;17.23;10.10;;;23.00;19.20;;;;;;5014401;28;20536;-87
2021/10/08 11:31:09;;;;;;;11.23;8.90;;;23.40;17.40;;;;;;5013165;28;20523;-87
2021/10/08 11:33:40;;;;;;;12.20;8.20;;;23.50;16.00;;;;;;5014034;28;20453;-87
2021/10/08 11:36:20;;;;;;;14.47;8.90;;;23.00;15.30;;;;;;5014210;28;20457;-85
2021/10/08 11:38:49;;;;;;;14.00;9.53;;;23.00;16.70;;;;;;5013994;28;20493;-84
2021/10/08 11:41:18;;;;;;;14.13;8.00;;;23.20;16.30;;;;;;5014330;28;20898;-90
2021/10/08 11:43:52;;;;;;;10.80;7.80;;;23.30;13.90;;;;;;5014125;28;20449;-87
2021/10/08 11:46:35;;;;;;;11.33;7.97;;;23.50;13.80;;;;;;5013127;28;20456;-88
2021/10/08 11:49:23;;;;;;;10.70;7.17;;;23.70;13.70;;;;;;5014172;28;20453;-88
2021/10/08 11:52:19;;;;;;;9.73;7.30;;;24.20;12.80;;;;;;5013754;28;20472;-88
2021/10/08 11:55:11;;;;;;;11.00;7.40;;;23.50;10.70;;;;;;5011552;28;20948;-87
2021/10/08 11:57:54;;;;;;;12.13;7.00;;;24.30;10.10;;;;;;5013624;28;20576;-86
2021/10/08 12:00:24;;;;;;;14.47;8.53;;;24.50;9.50;;;;;;5012550;28;20485;-88
2021/10/08 12:03:00;;;;;;;14.13;6.63;;;24.20;8.90;;;;;;5013249;28;20457;-87
2021/10/08 12:05:39;;;;;;;10.03;6.63;;;24.50;8.50;;;;;;5013517;28;20452;-85
2021/10/08 12:08:06;;;;;;;9.90;6.87;;;25.10;4.60;;;;;;5013426;28;20461;-88
2021/10/08 12:10:35;;;;;;;9.23;6.03;;;24.90;6.40;;;;;;5013867;28;20548;-88
2021/10/08 12:13:02;;;;;;;9.17;5.63;;;24.30;7.70;;;;;;5013575;28;20520;-87
2021/10/08 12:15:31;;;;;;;8.27;6.00;;;23.80;7.60;;;;;;5012168;28;20988;-88
2021/10/08 12:18:01;;;;;;;10.13;6.03;;;24.20;8.20;;;;;;5013028;28;21085;-86
2021/10/08 12:20:29;;;;;;;7.63;4.93;;;24.80;6.10;;;;;;5013347;28;20448;-87
2021/10/08 12:23:20;;;;;;;6.93;5.00;;;24.60;6.00;;;;;;5013253;28;20542;-88
2021/10/08 12:25:53;;;;;;;8.40;5.30;;;24.60;5.90;;;;;;5013286;28;20445;-87
2021/10/08 12:28:26;;;;;;;7.00;4.53;;;24.10;4.80;;;;;;5013234;28;20544;-88
2021/10/08 12:30:58;;;;;;;11.30;4.87;;;24.80;6.50;;;;;;5012172;28;20453;-91
2021/10/08 12:33:31;;;;;;;7.73;4.80;;;25.10;3.70;;;;;;5013188;28;20485;-86
2021/10/08 12:36:21;;;;;;;7.20;4.40;;;24.90;3.30;;;;;;5013211;28;20471;-87
2021/10/08 12:39:06;;;;;;;8.43;3.80;;;25.20;2.80;;;;;;5013422;28;20952;-86
2021/10/08 12:41:42;;;;;;;9.50;4.77;;;25.60;2.40;;;;;;5014425;28;20455;-84